Glenoak, Oklahoma
Current Conditions -  °F | °C
As of 3:53 PM on Monday 26 Jan 2015 (Local Time) from KBVO Reporting Station
Clear Clear  
Wind Chill: 70°   Ceiling: Unl
Heat Index: 70°   Visibility: 10mi
Dew Point: 36°   Wind: 7mph
Humidity: 29%   Direction: 300°WNW
Pressure: 29.98"   Gusts: NA
Location:  36.7524°N, 96.0733°W
Report Text: KBVO 262153Z AUTO 30006KT 10SM CLR 21/02 A2998 RMK AO2 SLP148 T02110022
Loading
Personal Weather Stations






























Interactive Weather Map New forecast layout! Learn more

10-Day Weather Forecast

Advertisements
Track Severe Weather on mobile